To był kolejny trudny dzień. Z rywalizacji wycofał się wicelider Kriss Meeke, którego Citroen DS3 WRC wypadł z trasy na przedostatnim sobotnim odcinku specjalnym. W samochodzie uszkodzona została misa olejowa i skrzynia biegów i auto nie nadawało się do dalszej jazdy.

Liderem po 9 OS jest Sebastien Ogier, który na trzy odcinki przed końcem rajdu wyprzedza kolegę z zespołu Andreasa Mikkelsena (+1:59,7) i aktualnie najwyżej sklasyfikowanego kierowcę Hyundaia Thierry Neuville'a (+2:12,2).

Bryan Bouffier zajmuje doskonałe szóste miejsce, ale samochód trzykrotnego mistrza Polski ma uszkodzoną lewą tylną część po najechaniu na kamień.

Hubert Ptaszek zakończył sobotnie zmagania siódmym czasem w WRC2. Polak jak na razie jest sklasyfikowany na siódmym miejscu w klasie i dwudziestym w klasyfikacji generalnej.

W WRC3 Tomasz Gryc dotarł do mety ostatniego sobotniego odcinka ze stratą ponad dwóch i pół minuty do zwycięzcy klasy, a Sławomir Ogryzek zanotował ponad cztery minuty straty. W klasyfikacji RC4 polscy kierowcy zajmują odpowiednio siódme i jedenaste miejsce.

Rallye Monte-Carlo – klasyfikacja po 13 OS:

Poz. Kierowca / Pilot Samochód Poz. Czas OS Kary Łączny czas Strata do lidera Strata do poprz.
1 Ogier S. / Ingrassia J. Volkswagen Polo R WRC  RC1 1 03:19:05.7 03:19:05.7 00:00:00.0 00:00:00.0
2 Mikkelsen A. / Jaeger Anders Volkswagen Polo R WRC  RC1 2 03:21:05.4 03:21:05.4 00:01:59.7 00:01:59.7
3 Neuville T. / Gilsoul Nicolas Hyundai i20 WRC  RC1 3 03:21:17.9 03:21:17.9 00:02:12.2 00:00:12.5
4 Østberg Mads / Fløene Ola Ford Fiesta RS WRC  RC1 4 03:23:31.6 03:23:31.6 00:04:25.9 00:02:13.7
5 Lefebvre S. / Moreau Gabin Citroën DS3 WRC  RC1 5 03:26:15.1 00:00:20.0 03:26:35.1 00:07:29.4 00:03:03.5
6 Bouffier Bryan / Bellotto Victor Ford Fiesta RS WRC  RC1 6 03:28:18.6 03:28:18.6 00:09:12.9 00:01:43.5
7 Tänak Ott / Mõlder Raigo Ford Fiesta RS WRC  RC1 7 03:29:48.0 03:29:48.0 00:10:42.3 00:01:29.4
8 Sordo Dani / Martí Marc Hyundai i20 WRC  RC1 8 03:29:50.2 03:29:50.2 00:10:44.5 00:00:02.2
9 Evans Elfyn / Parry Craig Ford Fiesta R5  RC2 1 03:36:20.2 03:36:20.2 00:17:14.5 00:06:30.0
10 Kremer Armin / Winklhofer P. Škoda Fabia R5  RC2 2 03:38:32.1 03:38:32.1 00:19:26.4 00:02:11.9
11 Lappi Esapekka / Ferm Janne Škoda Fabia R5  RC2 3 03:38:43.8 03:38:43.8 00:19:38.1 00:00:11.7
12 Gilbert Quentin / Jamoul Renaud Citroën DS3 R5  RC2 4 03:38:47.1 03:38:47.1 00:19:41.4 00:00:03.3
13 Giordano Q. / Sarreaud V. Citroën DS3 R5  RC2 5 03:41:14.6 03:41:14.6 00:22:08.9 00:02:27.5
14 Suninen Teemu / Markkula Mikko Škoda Fabia R5  RC2 6 03:41:27.0 03:41:27.0 00:22:21.3 00:00:12.4
15 Margaillan M. / Degout Jérôme Škoda Fabia R5  RC2 7 03:45:16.3 03:45:16.3 00:26:10.6 00:03:49.3
16 Delecour F. / De Castelli S. Peugeot 207 S2000  RC2 8 03:45:25.3 03:45:25.3 00:26:19.6 00:00:09.0
17 Bonato Yoann / Giraudet Denis Citroën DS3 R5  RC2 9 03:48:07.9 03:48:07.9 00:29:02.2 00:02:42.6
18 Suárez J. / Carrera C. Peugeot 208 T16  RC2 10 03:50:39.5 03:50:39.5 00:31:33.8 00:02:31.6
19 Veiby O. / Andersson Jonas Citroën DS3 R3T  RC3 1 03:56:06.3 03:56:06.3 00:37:00.6 00:05:26.8
20 Ptaszek Hubert / Kozdroń Kamil Škoda Fabia R5  RC2 11 03:56:32.1 03:56:32.1 00:37:26.4 00:00:25.8
21 Berfa Jordan / Augustin Damien Peugeot 208 R2  RC4 1 03:59:17.6 03:59:17.6 00:40:11.9 00:02:45.5
22 Oberti Damien / Pascal Thierry Peugeot 207 S2000  RC2 12 04:00:18.9 04:00:18.9 00:41:13.2 00:01:01.3
23 Re Felice / Bariani Mara Citroën DS3 WRC  RC1 9 04:01:06.5 04:01:06.5 00:42:00.8 00:00:47.6
24 Athanassoulas L. / Zakcheos N. Škoda Fabia R5  RC2 13 04:00:58.1 00:00:10.0 04:01:08.1 00:42:02.4 00:00:01.6
25 Andolfi Fabio / Fenoli Manuel Peugeot 208 R2  RC4 2 04:01:13.9 04:01:13.9 00:42:08.2 00:00:05.8
26 De Tommaso D. / Bosi M. Peugeot 208 R2  RC4 3 04:02:00.9 04:02:00.9 00:42:55.2 00:00:47.0
27 Vatanen Max / Renucci J. Ford Fiesta R2  RC4 4 04:02:12.9 04:02:12.9 00:43:07.2 00:00:12.0
28 Burri Michaël / Levratti A. Renault Clio R3T  RC3 2 04:03:12.4 04:03:12.4 00:44:06.7 00:00:59.5
29 Villa Manuel / Ferrara Michele Peugeot 208 T16  RC2 14 04:03:52.6 00:00:10.0 04:04:02.6 00:44:56.9 00:00:50.2
30 Rossetti Luca / Mori Eleonora Renault Clio R3T  RC3 3 04:04:17.5 04:04:17.5 00:45:11.8 00:00:14.9
31 Boland Eamonn / Morrissey M. Subaru Impreza STI  RC2 15 04:05:04.4 04:05:04.4 00:45:58.7 00:00:46.9
32 Paddon Hayden / Kennard John Hyundai i20 WRC  RC1 10 04:05:05.5 04:05:05.5 00:45:59.8 00:00:01.1
33 Vaillant B. / Mondon Cédric Renault Clio R3T  RC3 4 04:06:15.5 04:06:15.5 00:47:09.8 00:01:10.0
34 Courtois O. / Risser Hubert Renault Clio R3T  RC3 5 04:06:25.9 04:06:25.9 00:47:20.2 00:00:10.4
35 Renchet Nicolas / Amoros Cédric Renault Clio R3  RC3 6 04:06:37.9 04:06:37.9 00:47:32.2 00:00:12.0
36 Koch Maximilian / Brunthaler Lisa Škoda Fabia S2000  RC2 16 04:07:27.2 04:07:27.2 00:48:21.5 00:00:49.3
37 Chvála R. / Hlisnikovský L. Peugeot 208 R2  RC4 5 04:11:02.3 04:11:02.3 00:51:56.6 00:03:35.1
38 Dubert Vincent / Pujol S. Citroën DS3 R3T  RC3 7 04:11:03.5 04:11:03.5 00:51:57.8 00:00:01.2
39 Dolce Renaud / Ayasse J. Citroën DS3 R3T  RC3 8 04:11:33.7 00:00:10.0 04:11:43.7 00:52:38.0 00:00:40.2
40 Cima Francisco / Lopez Alejandro Renault Clio R3T  RC3 9 04:12:13.2 04:12:13.2 00:53:07.5 00:00:29.5
41 Blanc Marco / Fappani Danilo Peugeot 208 R2  RC4 6 04:13:12.6 04:13:12.6 00:54:06.9 00:00:59.4
42 Koči Martin / Kostka Lukáš Citroën DS3 R3T  RC3 10 04:13:24.5 00:01:20.0 04:14:44.5 00:55:38.8 00:01:31.9
43 Brera Maurice / Forestier P. Fiat 500 Abarth R3T  RC3 11 04:15:07.8 04:15:07.8 00:56:02.1 00:00:23.3
44 Ganguet C. / Frison Emmanuel Škoda Fabia S2000  RC2 17 04:15:49.7 04:15:49.7 00:56:44.0 00:00:41.9
45 Gryc Tomasz / Kuśnierz M. Peugeot 208 R2  RC4 7 04:15:51.4 04:15:51.4 00:56:45.7 00:00:01.7
46 Metiffiot S. / Metiffiot P. Peugeot 208 R2  RC4 8 04:18:01.0 04:18:01.0 00:58:55.3 00:02:09.6
47 Tempestini S. / Chiarcossi M. Ford Fiesta R5  RC2 18 04:18:42.6 04:18:42.6 00:59:36.9 00:00:41.6
48 Sorin Marvin / Moinet Karine Renault Clio R3T  RC3 12 04:18:05.6 00:01:00.0 04:19:05.6 00:59:59.9 00:00:23.0
49 Brazzoli Enrico / Barone Maurizio Peugeot 208 R2  RC4 9 04:20:39.3 04:20:39.3 01:01:33.6 00:01:33.7
50 Cali' G. / Barreca G. Škoda Fabia S2000  RC2 19 04:21:03.7 04:21:03.7 01:01:58.0 00:00:24.4
51 Poizot Thibaut / Arnaud Eva Citroën C2 R2 Max  RC4 10 04:21:05.0 04:21:05.0 01:01:59.3 00:00:01.3
52 Vialle Lilian / Ghirardello M. Renault Clio R3  RC3 13 04:21:35.2 00:01:10.0 04:22:45.2 01:03:39.5 00:01:40.2
53 Fabre Michel / Vilmot Maxime Citroën DS3 R3T  RC3 14 04:23:07.2 04:23:07.2 01:04:01.5 00:00:22.0
54 Ogryzek S. / Wróbel Jakub Peugeot 208 R2  RC4 11 04:23:14.2 04:23:14.2 01:04:08.5 00:00:07.0
55 Foulon Alain / Ferro Bernard Mitsubishi Lancer Evo X  RC2 20 04:20:56.2 00:03:00.0 04:23:56.2 01:04:50.5 00:00:42.0